Detroit, MI

2:46 AM EST on January 21, 2017 (GMT -0500)
Lafayette Park | | Change Station
Active Advisory: Dense Fog Advisory

Elev 0 ft 42.34 °N, 83.04 °W | Updated 2 minutes ago

Fog
Fog
40.6 °F
Feels Like 38 °F
N
3.7
Wind Variable Wind from WNW
Gusts 7.5 mph

Today
High -- | Low -- °F
--% Chance of Precip.
Yesterday
High -- | Low -- °F
Precip. -- in
Pressure 29.76 in
Visibility 0.5 miles
Clouds
Windchill 38 °F
Dew Point 40 °F
Humidity 97%
Rainfall 0.00 in
Snow Depth Not available.
7:55 AM 5:32 PM
Last Quarter, 37% visible
SPECI KDET 210727Z 12003KT 1/2SM FG VV003 04/04 A2976 RMK AO2 T00440044
Pressure 29.76 in
Visibility 0.5 miles
Clouds
Windchill 38 °F
Dew Point 40 °F
Humidity 97%
Rainfall 0.00 in
Snow Depth Not available.
7:55 AM 5:32 PM
Last Quarter, 37% visible
SPECI KDET 210727Z 12003KT 1/2SM FG VV003 04/04 A2976 RMK AO2 T00440044

Get Your Daily Forecast Email!

Thanks for signing up!

Be on the lookout for a verification email in your inbox.

You'll start receiving the daily forecast at 8 AM.

×

10-Day Weather Forecast

Almanac

Astronomy

Jan. 21, 2017 Rise Set
Actual Time
Civil Twilight
Nautical Twilight
Astronomical Twilight
Moon
Length of Visible Light
Length of Day
Tomorrow will be .
, % of the Moon is Illuminated

Today's Extremes

State Highs State Lows

Community

WunderPhotos

Upload Photos

1,962,540 photos uploaded!

WunderBlog® & News

Nearby

Air Quality

  Air Quality AQ Index Pollutant
Not available.

Snow Depth

Station Depth Elevation

Earthquake Activity

City Distance Mag. Time & Date
Minimum magnitude displayed is 2.5.

Coastal Water Temperatures

Place Temperature

Stations

Nearby Weather Stations

Station Location Temp. Windchill Dew Point Humidity Wind Precip. Elev Updated Type
                   

Watches & Warnings

Dense Fog Advisory
Issued: 9:13 PM EST Jan. 20, 2017 – National Weather Service

... Dense fog advisory remains in effect until 10 am EST
Saturday...

Hazardous weather...

* fog will persist this evening with pockets of dense fog
   reducing visibility to one quarter of a mile in some areas.

* Dense fog will becoming increasingly widespread overnight with
   visibility below one quarter of a mile at times.

* Fog... locally dense... will persist into Saturday morning before
   slowly eroding.

Impacts...

* hazardous driving conditions in reduced visibilities.

Precautionary/preparedness actions...

A dense fog advisory means visibilities will frequently be
reduced to less than one quarter mile. If driving... slow down...
use your headlights... and leave plenty of distance ahead of you.

* Prepare... plan... and stay informed. Visit
   www.Weather.Gov/DTX/weather_preparedness



Dg